Lake Mary, Florida
Current Conditions -  °F | °C
As of 7:53 AM on Sunday 23 Nov 2014 (Local Time) from KSFB Reporting Station
Overcast Overcast  
Wind Chill: 72°   Ceiling: 900
Heat Index: 72°   Visibility: 10mi
Dew Point: 70°   Wind: 8mph
Humidity: 93%   Direction: 170°S
Pressure: 30.02"   Gusts: NA
Location:  28.76°N, 81.32°W
Report Text: KSFB 231253Z 17007KT 10SM BKN009 OVC019 22/21 A3002 RMK AO2 SLP163 T02220211
Loading
Personal Weather Stations






























Interactive Weather Map New forecast layout! Learn more

10-Day Weather Forecast

Advertisements
Track Severe Weather on mobile